Scranton, North Dakota
Current Conditions -  °F | °C
As of 2:53 AM on Thursday 18 Dec 2014 (Local Time) from KHEI Reporting Station
Haze Haze  
Wind Chill:   Ceiling: 300
Heat Index: 20°   Visibility: 3mi
Dew Point: 17°   Wind: 10mph
Humidity: 89%   Direction: 140°SE
Pressure: 30"   Gusts: NA
Location:  46.15°N, 103.14°W
Report Text: KHEI 180953Z AUTO 14009KT 3SM BR OVC003 M07/M08 A3000 RMK AO2 SLP201 I1001 T10671083
Loading
Personal Weather Stations






























Interactive Weather Map New forecast layout! Learn more

10-Day Weather Forecast

Advertisements
Track Severe Weather on mobile